createdAt,value
2023-01-27T00:01:57.738Z,0.63
2023-01-27T00:04:24.219Z,0.60
2023-01-27T00:06:50.717Z,0.62
2023-01-27T00:09:17.260Z,0.62
2023-01-27T00:12:02.246Z,0.57
2023-01-27T00:14:28.752Z,0.67
2023-01-27T00:16:58.769Z,0.66
2023-01-27T00:19:27.069Z,0.66
2023-01-27T00:22:12.160Z,0.64
2023-01-27T00:24:38.834Z,0.64
2023-01-27T00:27:08.821Z,0.67
2023-01-27T00:29:36.362Z,0.66
2023-01-27T00:32:21.271Z,0.72
2023-01-27T00:34:47.744Z,0.71
2023-01-27T00:37:14.511Z,0.72
2023-01-27T00:39:41.158Z,0.71
2023-01-27T00:42:07.634Z,0.70
2023-01-27T00:44:34.117Z,0.72
2023-01-27T00:47:00.648Z,0.76
2023-01-27T00:49:27.128Z,0.79
2023-01-27T00:51:54.952Z,0.81
2023-01-27T00:54:21.485Z,0.78
2023-01-27T00:56:48.393Z,0.69
2023-01-27T00:59:14.866Z,0.79
2023-01-27T01:01:41.631Z,0.81
2023-01-27T01:04:08.136Z,0.82
2023-01-27T01:06:34.619Z,0.77
2023-01-27T01:09:01.089Z,0.84
2023-01-27T01:11:27.630Z,0.82
2023-01-27T01:13:56.264Z,0.85
2023-01-27T01:16:23.726Z,0.84
2023-01-27T01:18:50.269Z,0.86
2023-01-27T01:21:16.908Z,0.79
2023-01-27T01:23:44.281Z,0.86
2023-01-27T01:26:11.645Z,0.92
2023-01-27T01:28:38.290Z,0.90
2023-01-27T01:31:08.785Z,0.94
2023-01-27T01:33:35.977Z,0.90
2023-01-27T01:36:06.130Z,0.89
2023-01-27T01:38:32.456Z,0.98
2023-01-27T01:40:58.976Z,0.96
2023-01-27T01:43:27.686Z,0.99
2023-01-27T01:45:55.753Z,0.95
2023-01-27T01:48:31.718Z,1.01
2023-01-27T01:51:21.361Z,0.99
2023-01-27T01:54:04.563Z,1.03
2023-01-27T01:56:35.481Z,1.04
2023-01-27T01:59:04.292Z,1.03
2023-01-27T02:01:30.858Z,1.07
2023-01-27T02:03:59.166Z,1.02
2023-01-27T02:06:25.734Z,1.02
2023-01-27T02:08:52.831Z,1.08
2023-01-27T02:11:19.470Z,1.03
2023-01-27T02:13:45.953Z,1.09
2023-01-27T02:16:12.483Z,1.07
2023-01-27T02:18:40.158Z,1.03
2023-01-27T02:21:06.679Z,1.02
2023-01-27T02:23:41.337Z,1.04
2023-01-27T02:26:25.648Z,1.00
2023-01-27T02:28:54.873Z,1.04
2023-01-27T02:31:21.457Z,1.03
2023-01-27T02:33:48.077Z,0.99
2023-01-27T02:36:15.639Z,1.08
2023-01-27T02:38:47.475Z,1.07
2023-01-27T02:41:25.998Z,1.04
2023-01-27T02:43:52.477Z,1.09
2023-01-27T02:46:18.993Z,1.01
2023-01-27T02:48:46.506Z,1.01
2023-01-27T02:51:12.999Z,1.07
2023-01-27T02:53:39.514Z,1.01
2023-01-27T02:56:06.292Z,1.06
2023-01-27T02:58:32.759Z,1.12
2023-01-27T03:00:59.243Z,1.11
2023-01-27T03:03:25.726Z,1.15
2023-01-27T03:05:52.222Z,1.10
2023-01-27T03:08:19.048Z,1.13
2023-01-27T03:10:49.130Z,1.14
2023-01-27T03:13:15.584Z,1.07
2023-01-27T03:16:00.804Z,1.05
2023-01-27T03:18:27.293Z,1.13
2023-01-27T03:20:57.457Z,1.11
2023-01-27T03:23:23.791Z,1.08
2023-01-27T03:25:50.314Z,1.04
2023-01-27T03:28:16.923Z,1.06
2023-01-27T03:30:43.503Z,1.06
2023-01-27T03:33:10.105Z,1.06
2023-01-27T03:35:48.152Z,1.07
2023-01-27T03:38:36.946Z,1.10
2023-01-27T03:41:22.602Z,1.11
2023-01-27T03:44:07.476Z,1.11
2023-01-27T03:46:33.953Z,1.11
2023-01-27T03:49:00.976Z,1.10
2023-01-27T03:51:27.477Z,1.10
2023-01-27T03:53:54.004Z,1.11
2023-01-27T03:56:21.619Z,1.10
2023-01-27T03:58:48.450Z,1.06
2023-01-27T04:01:20.038Z,1.19
2023-01-27T04:04:05.181Z,1.11
2023-01-27T04:06:51.920Z,1.13
2023-01-27T04:09:37.668Z,1.12
2023-01-27T04:12:05.294Z,1.18
2023-01-27T04:14:33.608Z,1.18
2023-01-27T04:17:20.247Z,1.14
2023-01-27T04:19:46.950Z,1.06
2023-01-27T04:22:13.644Z,1.15
2023-01-27T04:24:40.126Z,1.15
2023-01-27T04:27:11.716Z,1.10
2023-01-27T04:29:40.861Z,1.12
2023-01-27T04:32:09.410Z,1.11
2023-01-27T04:34:35.900Z,1.16
2023-01-27T04:37:03.475Z,1.14
2023-01-27T04:39:29.946Z,1.17
2023-01-27T04:41:56.905Z,1.13
2023-01-27T04:44:23.766Z,1.20
2023-01-27T04:46:50.360Z,1.17
2023-01-27T04:49:16.923Z,1.23
2023-01-27T04:51:45.567Z,1.23
2023-01-27T04:54:12.670Z,1.19
2023-01-27T04:56:40.222Z,1.17
2023-01-27T04:59:08.055Z,1.26
2023-01-27T05:01:34.619Z,1.25
2023-01-27T05:04:01.135Z,1.21
2023-01-27T05:06:27.713Z,1.29
2023-01-27T05:08:54.276Z,1.29
2023-01-27T05:11:20.791Z,1.27
2023-01-27T05:13:47.609Z,1.26
2023-01-27T05:16:21.568Z,1.27
2023-01-27T05:18:48.802Z,1.27
2023-01-27T05:21:17.224Z,1.24
2023-01-27T05:23:44.519Z,1.27
2023-01-27T05:26:16.558Z,1.28
2023-01-27T05:28:44.769Z,1.26
2023-01-27T05:31:12.227Z,1.30
2023-01-27T05:33:40.278Z,1.20
2023-01-27T05:36:07.583Z,1.31
2023-01-27T05:38:34.059Z,1.25
2023-01-27T05:41:02.112Z,1.22
2023-01-27T05:43:29.966Z,1.23
2023-01-27T05:46:03.462Z,1.27
2023-01-27T05:48:29.972Z,1.39
2023-01-27T05:50:57.287Z,1.39
2023-01-27T05:53:23.852Z,1.32
2023-01-27T05:55:51.196Z,1.38
2023-01-27T05:58:17.886Z,1.34
2023-01-27T06:00:44.512Z,1.37
2023-01-27T06:03:11.124Z,1.36
2023-01-27T06:05:37.630Z,1.41
2023-01-27T06:08:04.362Z,1.41
2023-01-27T06:10:31.968Z,1.37
2023-01-27T06:13:00.656Z,1.32
2023-01-27T06:15:27.133Z,1.40
2023-01-27T06:17:53.742Z,1.38
2023-01-27T06:20:20.213Z,1.38
2023-01-27T06:22:46.740Z,1.35
2023-01-27T06:25:13.541Z,1.39
2023-01-27T06:27:40.239Z,1.40
2023-01-27T06:30:07.462Z,1.38
2023-01-27T06:32:36.204Z,1.37
2023-01-27T06:35:03.039Z,1.43
2023-01-27T06:37:29.893Z,1.42
2023-01-27T06:39:56.357Z,1.43
2023-01-27T06:42:22.864Z,1.44
2023-01-27T06:44:49.373Z,1.46
2023-01-27T06:47:15.873Z,1.44
2023-01-27T06:49:42.400Z,1.41
2023-01-27T06:52:08.873Z,1.44
2023-01-27T06:54:35.395Z,1.53
2023-01-27T06:57:01.893Z,1.47
2023-01-27T06:59:28.351Z,1.46
2023-01-27T07:01:54.851Z,1.45
2023-01-27T07:04:21.856Z,1.46
2023-01-27T07:06:48.350Z,1.43
2023-01-27T07:09:15.107Z,1.42
2023-01-27T07:11:41.590Z,1.54
2023-01-27T07:14:10.433Z,1.58
2023-01-27T07:16:37.156Z,1.49
2023-01-27T07:19:03.675Z,1.57
2023-01-27T07:21:30.159Z,1.47
2023-01-27T07:23:56.668Z,1.50
2023-01-27T07:26:25.071Z,1.50
2023-01-27T07:28:52.172Z,1.57
2023-01-27T07:31:18.765Z,1.62
2023-01-27T07:33:45.280Z,1.55
2023-01-27T07:36:11.791Z,1.59
2023-01-27T07:38:39.009Z,1.59
2023-01-27T07:41:06.120Z,1.56
2023-01-27T07:43:33.200Z,1.59
2023-01-27T07:45:59.948Z,1.66
2023-01-27T07:48:26.518Z,1.63
2023-01-27T07:50:52.997Z,1.62
2023-01-27T07:53:19.461Z,1.70
2023-01-27T07:55:46.221Z,1.67
2023-01-27T07:58:12.727Z,1.67
2023-01-27T08:00:39.334Z,1.67
2023-01-27T08:03:08.665Z,1.75
2023-01-27T08:05:35.243Z,1.72
2023-01-27T08:08:04.412Z,1.77
2023-01-27T08:10:31.334Z,1.73
2023-01-27T08:12:57.827Z,1.76
2023-01-27T08:15:24.377Z,1.71
2023-01-27T08:17:57.542Z,1.68
2023-01-27T08:20:24.841Z,1.70
2023-01-27T08:22:51.328Z,1.72
2023-01-27T08:25:17.800Z,1.70
2023-01-27T08:27:44.300Z,1.72
2023-01-27T08:30:11.548Z,1.72
2023-01-27T08:32:38.296Z,1.78
2023-01-27T08:35:04.929Z,1.72
2023-01-27T08:37:31.484Z,1.71
2023-01-27T08:39:57.952Z,1.73
2023-01-27T08:42:24.461Z,1.79
2023-01-27T08:44:51.021Z,1.75
2023-01-27T08:47:17.512Z,1.77
2023-01-27T08:49:44.001Z,1.74
2023-01-27T08:52:10.485Z,1.73
2023-01-27T08:54:36.930Z,1.80
2023-01-27T08:57:03.439Z,1.73
2023-01-27T08:59:29.897Z,1.76
2023-01-27T09:01:56.374Z,1.78
2023-01-27T09:04:23.119Z,1.84
2023-01-27T09:06:50.393Z,1.83
2023-01-27T09:09:16.862Z,1.82
2023-01-27T09:11:44.451Z,1.81
2023-01-27T09:14:11.061Z,1.89
2023-01-27T09:16:37.539Z,1.86
2023-01-27T09:19:04.207Z,1.84
2023-01-27T09:21:30.715Z,1.83
2023-01-27T09:23:57.305Z,1.90
2023-01-27T09:26:23.807Z,1.90
2023-01-27T09:28:50.291Z,1.91
2023-01-27T09:31:16.878Z,1.84
2023-01-27T09:33:43.415Z,1.84
2023-01-27T09:36:15.571Z,1.82
2023-01-27T09:38:46.453Z,1.77
2023-01-27T09:41:46.580Z,1.77
2023-01-27T09:44:31.897Z,1.76
2023-01-27T09:47:30.762Z,1.76
2023-01-27T09:50:18.423Z,1.74
2023-01-27T09:53:06.121Z,1.76
2023-01-27T09:55:57.425Z,1.71
2023-01-27T09:58:52.914Z,1.70
2023-01-27T10:01:29.771Z,1.78
2023-01-27T10:04:25.055Z,1.79
2023-01-27T10:07:01.304Z,1.78
2023-01-27T10:09:55.808Z,1.81
2023-01-27T10:12:41.084Z,1.72
2023-01-27T10:15:43.677Z,1.70
2023-01-27T10:18:21.702Z,1.70
2023-01-27T10:21:08.723Z,1.69
2023-01-27T10:23:51.605Z,1.71
2023-01-27T10:26:25.769Z,1.70
2023-01-27T10:28:57.802Z,1.70
2023-01-27T10:31:26.876Z,1.61
2023-01-27T10:33:58.369Z,1.66
2023-01-27T10:36:30.354Z,1.65
2023-01-27T10:39:16.098Z,1.67
2023-01-27T10:42:05.824Z,1.64
2023-01-27T10:44:53.640Z,1.67
2023-01-27T10:47:50.292Z,1.64
2023-01-27T10:50:31.393Z,1.72
2023-01-27T10:53:24.320Z,1.71
2023-01-27T10:56:01.554Z,1.75
2023-01-27T10:58:44.135Z,1.78
2023-01-27T11:01:21.272Z,1.78
2023-01-27T11:03:54.819Z,1.76
2023-01-27T11:06:27.348Z,1.77
2023-01-27T11:08:59.309Z,1.73
2023-01-27T11:11:44.179Z,1.74
2023-01-27T11:14:28.900Z,1.73
2023-01-27T11:17:03.279Z,1.75
2023-01-27T11:19:41.262Z,1.72
2023-01-27T11:22:16.634Z,1.67
2023-01-27T11:24:46.097Z,1.68
2023-01-27T11:27:57.087Z,1.75
2023-01-27T11:30:32.615Z,1.73
2023-01-27T11:33:03.006Z,1.79
2023-01-27T11:35:29.376Z,1.83
2023-01-27T11:38:06.320Z,1.77
2023-01-27T11:40:41.469Z,1.74
2023-01-27T11:43:09.601Z,1.76
2023-01-27T11:45:36.246Z,1.79
2023-01-27T11:48:04.313Z,1.76
2023-01-27T11:50:33.304Z,1.73
2023-01-27T11:53:21.582Z,1.78
2023-01-27T11:55:51.258Z,1.74
2023-01-27T11:58:24.321Z,1.78
2023-01-27T12:00:55.188Z,1.76
2023-01-27T12:03:42.588Z,1.84
2023-01-27T12:06:15.776Z,1.81
2023-01-27T12:08:46.439Z,1.83
2023-01-27T12:11:23.037Z,1.79
2023-01-27T12:14:11.842Z,1.76
2023-01-27T12:16:47.624Z,1.77
2023-01-27T12:19:29.232Z,1.79
2023-01-27T12:22:01.074Z,1.80
2023-01-27T12:24:32.068Z,1.77
2023-01-27T12:26:58.939Z,1.79
2023-01-27T12:29:34.163Z,1.76
2023-01-27T12:32:00.823Z,1.70
2023-01-27T12:34:34.552Z,1.71
2023-01-27T12:37:01.057Z,1.74
2023-01-27T12:39:39.368Z,1.71
2023-01-27T12:42:06.016Z,1.64
2023-01-27T12:44:42.838Z,1.61
2023-01-27T12:47:25.226Z,1.64
2023-01-27T12:49:51.738Z,1.59
2023-01-27T12:52:19.955Z,1.61
2023-01-27T12:54:46.436Z,1.61
2023-01-27T12:57:17.320Z,1.62
2023-01-27T12:59:51.304Z,1.67
2023-01-27T13:02:21.283Z,1.57
2023-01-27T13:04:54.552Z,1.63
2023-01-27T13:07:29.634Z,1.64
2023-01-27T13:10:00.190Z,1.66
2023-01-27T13:12:29.938Z,1.61
2023-01-27T13:15:14.589Z,1.64
2023-01-27T13:17:54.547Z,1.71
2023-01-27T13:20:41.099Z,1.69
2023-01-27T13:23:24.742Z,1.69
2023-01-27T13:25:58.931Z,1.77
2023-01-27T13:28:46.030Z,1.77
2023-01-27T13:31:39.070Z,1.74
2023-01-27T13:34:11.583Z,1.71
2023-01-27T13:36:39.530Z,1.69
2023-01-27T13:39:39.051Z,1.63
2023-01-27T13:42:05.812Z,1.70
2023-01-27T13:44:36.673Z,1.68
2023-01-27T13:47:05.664Z,1.57
2023-01-27T13:49:36.367Z,1.59
2023-01-27T13:52:04.483Z,1.55
2023-01-27T13:54:31.015Z,1.53
2023-01-27T13:57:11.912Z,1.54
2023-01-27T13:59:52.420Z,1.57
2023-01-27T14:02:33.424Z,1.55
2023-01-27T14:05:18.381Z,1.59
2023-01-27T14:08:05.562Z,1.62
2023-01-27T14:10:38.029Z,1.63
2023-01-27T14:13:18.595Z,1.56
2023-01-27T14:15:51.967Z,1.45
2023-01-27T14:18:30.740Z,1.44
2023-01-27T14:21:08.574Z,1.38
2023-01-27T14:23:52.880Z,1.47
2023-01-27T14:26:36.600Z,1.42
2023-01-27T14:29:31.962Z,1.40
2023-01-27T14:32:27.280Z,1.37
2023-01-27T14:34:59.636Z,1.33
2023-01-27T14:37:31.484Z,1.41
2023-01-27T14:40:03.969Z,1.31
2023-01-27T14:42:39.326Z,1.35
2023-01-27T14:45:27.136Z,1.33
2023-01-27T14:47:58.367Z,1.33
2023-01-27T14:50:46.294Z,1.40
2023-01-27T14:53:25.539Z,1.33
2023-01-27T14:55:57.201Z,1.33
2023-01-27T14:58:55.236Z,1.40
2023-01-27T15:01:33.626Z,1.36
2023-01-27T15:04:21.920Z,1.33
2023-01-27T15:06:53.199Z,1.27
2023-01-27T15:09:32.514Z,1.30
2023-01-27T15:12:41.091Z,1.34
2023-01-27T15:15:29.237Z,1.29
2023-01-27T15:18:21.066Z,1.30
2023-01-27T15:21:02.372Z,1.27
2023-01-27T15:23:48.036Z,1.29
2023-01-27T15:26:14.503Z,1.18
2023-01-27T15:28:41.519Z,1.20
2023-01-27T15:31:13.817Z,1.19
2023-01-27T15:33:53.518Z,1.13
2023-01-27T15:36:32.066Z,1.10
2023-01-27T15:39:10.621Z,1.06
2023-01-27T15:41:53.013Z,1.06
2023-01-27T15:44:25.541Z,1.01
2023-01-27T15:46:53.118Z,1.06
2023-01-27T15:49:24.647Z,1.04
2023-01-27T15:51:52.152Z,1.07
2023-01-27T15:54:27.820Z,1.07
2023-01-27T15:56:54.898Z,1.02
2023-01-27T15:59:30.476Z,0.99
2023-01-27T16:02:01.253Z,0.98
2023-01-27T16:04:27.975Z,1.02
2023-01-27T16:07:02.236Z,0.91
2023-01-27T16:09:39.703Z,0.93
2023-01-27T16:12:24.432Z,0.96
2023-01-27T16:15:16.793Z,0.93
2023-01-27T16:18:01.787Z,0.88
2023-01-27T16:20:42.454Z,0.90
2023-01-27T16:23:13.850Z,0.92
2023-01-27T16:25:45.413Z,0.85
2023-01-27T16:28:32.077Z,0.87
2023-01-27T16:31:03.584Z,0.83
2023-01-27T16:33:33.082Z,0.82
2023-01-27T16:36:16.112Z,0.85
2023-01-27T16:38:42.580Z,0.83
2023-01-27T16:41:27.390Z,0.81
2023-01-27T16:44:02.739Z,0.75
2023-01-27T16:46:31.981Z,0.71
2023-01-27T16:48:58.498Z,0.75
2023-01-27T16:51:26.538Z,0.74
2023-01-27T16:53:53.986Z,0.76
2023-01-27T16:56:27.223Z,0.72
2023-01-27T16:59:01.163Z,0.67
2023-01-27T17:01:36.924Z,0.64
2023-01-27T17:04:18.844Z,0.68
2023-01-27T17:06:46.247Z,0.66
2023-01-27T17:09:20.958Z,0.71
2023-01-27T17:11:47.518Z,0.68
2023-01-27T17:14:28.603Z,0.77
2023-01-27T17:17:00.114Z,0.72
2023-01-27T17:19:34.121Z,0.67
2023-01-27T17:22:06.584Z,0.66
2023-01-27T17:25:02.825Z,0.66
2023-01-27T17:27:31.023Z,0.74
2023-01-27T17:30:14.807Z,0.70
2023-01-27T17:32:42.217Z,0.65
2023-01-27T17:35:19.907Z,0.67
2023-01-27T17:37:47.122Z,0.71
2023-01-27T17:40:21.322Z,0.78
2023-01-27T17:42:48.303Z,0.73
2023-01-27T17:45:26.383Z,0.75
2023-01-27T17:47:52.867Z,0.67
2023-01-27T17:50:21.182Z,0.66
2023-01-27T17:52:52.349Z,0.66
2023-01-27T17:55:21.960Z,0.77
2023-01-27T17:57:50.602Z,0.75
2023-01-27T18:00:21.740Z,0.79
2023-01-27T18:02:57.997Z,0.78
2023-01-27T18:05:25.785Z,0.76
2023-01-27T18:07:52.275Z,0.74
2023-01-27T18:10:24.015Z,0.73
2023-01-27T18:12:51.179Z,0.73
2023-01-27T18:15:43.091Z,0.65
2023-01-27T18:18:26.499Z,0.68
2023-01-27T18:20:53.776Z,0.63
2023-01-27T18:23:26.349Z,0.59
2023-01-27T18:26:18.300Z,0.63
2023-01-27T18:28:45.725Z,0.57
2023-01-27T18:31:14.798Z,0.60
2023-01-27T18:33:43.068Z,0.61
2023-01-27T18:36:21.811Z,0.57
2023-01-27T18:38:49.926Z,0.60
2023-01-27T18:41:26.504Z,0.61
2023-01-27T18:43:53.555Z,0.57
2023-01-27T18:46:20.096Z,0.56
2023-01-27T18:48:46.681Z,0.53
2023-01-27T18:51:14.002Z,0.59
2023-01-27T18:53:40.475Z,0.58
2023-01-27T18:56:07.934Z,0.65
2023-01-27T18:58:38.299Z,0.57
2023-01-27T19:01:07.080Z,0.54
2023-01-27T19:03:38.809Z,0.48
2023-01-27T19:06:16.637Z,0.53
2023-01-27T19:08:43.191Z,0.51
2023-01-27T19:11:15.934Z,0.54
2023-01-27T19:13:45.684Z,0.51
2023-01-27T19:16:13.946Z,0.50
2023-01-27T19:18:40.810Z,0.56
2023-01-27T19:21:11.780Z,0.48
2023-01-27T19:23:38.324Z,0.45
2023-01-27T19:26:05.091Z,0.47
2023-01-27T19:28:38.098Z,0.44
2023-01-27T19:31:07.712Z,0.57
2023-01-27T19:33:34.780Z,0.40
2023-01-27T19:36:17.197Z,0.44
2023-01-27T19:38:43.686Z,0.35
2023-01-27T19:41:10.934Z,0.37
2023-01-27T19:43:37.509Z,0.34
2023-01-27T19:46:11.426Z,0.41
2023-01-27T19:48:37.888Z,0.48
2023-01-27T19:51:04.377Z,0.42
2023-01-27T19:53:30.843Z,0.39
2023-01-27T19:55:58.912Z,0.29
2023-01-27T19:58:27.766Z,0.27
2023-01-27T20:00:54.828Z,0.29
2023-01-27T20:03:21.733Z,0.27
2023-01-27T20:05:48.536Z,0.26
2023-01-27T20:08:16.620Z,0.18
2023-01-27T20:10:43.265Z,0.18
2023-01-27T20:13:15.243Z,0.12
2023-01-27T20:15:41.749Z,0.14
2023-01-27T20:18:11.294Z,0.14
2023-01-27T20:20:37.813Z,0.09
2023-01-27T20:23:04.285Z,0.11
2023-01-27T20:25:30.761Z,0.09
2023-01-27T20:27:58.453Z,0.10
2023-01-27T20:30:34.884Z,0.06
2023-01-27T20:33:04.190Z,0.09
2023-01-27T20:35:30.696Z,0.03
2023-01-27T20:37:57.880Z,0.09
2023-01-27T20:40:26.412Z,0.06
2023-01-27T20:42:53.305Z,0.05
2023-01-27T20:45:19.782Z,0.07
2023-01-27T20:47:50.398Z,0.02
2023-01-27T20:50:17.012Z,0.14
2023-01-27T20:52:43.548Z,0.16
2023-01-27T20:55:10.253Z,0.07
2023-01-27T20:57:36.734Z,0.03
2023-01-27T21:00:03.395Z,-0.04
2023-01-27T21:02:30.017Z,0.06
2023-01-27T21:04:56.552Z,0.05
2023-01-27T21:07:23.535Z,0.11
2023-01-27T21:09:50.769Z,0.10
2023-01-27T21:12:17.265Z,0.08
2023-01-27T21:14:43.748Z,0.13
2023-01-27T21:17:11.680Z,0.05
2023-01-27T21:19:38.196Z,-0.01
2023-01-27T21:22:04.669Z,-0.05
2023-01-27T21:24:31.383Z,-0.07
2023-01-27T21:26:57.907Z,-0.06
2023-01-27T21:29:24.386Z,-0.06
2023-01-27T21:31:50.887Z,-0.01
2023-01-27T21:34:17.437Z,-0.01
2023-01-27T21:36:43.907Z,-0.04
2023-01-27T21:39:10.373Z,-0.08
2023-01-27T21:41:55.006Z,-0.08
2023-01-27T21:44:41.612Z,-0.07
2023-01-27T21:47:09.217Z,-0.11
2023-01-27T21:49:55.305Z,-0.12
2023-01-27T21:52:22.693Z,-0.05
2023-01-27T21:54:49.176Z,-0.03
2023-01-27T21:57:19.035Z,-0.06
2023-01-27T21:59:45.802Z,-0.04
2023-01-27T22:02:12.939Z,0.01
2023-01-27T22:04:42.989Z,-0.01
2023-01-27T22:07:12.423Z,-0.17
2023-01-27T22:09:39.031Z,-0.22
2023-01-27T22:12:06.338Z,-0.11
2023-01-27T22:14:32.882Z,-0.12
2023-01-27T22:16:59.387Z,-0.13
2023-01-27T22:19:25.880Z,-0.13
2023-01-27T22:21:52.354Z,-0.13
2023-01-27T22:24:18.955Z,-0.19
2023-01-27T22:26:45.460Z,-0.12
2023-01-27T22:29:11.907Z,-0.21
2023-01-27T22:31:40.173Z,-0.26
2023-01-27T22:34:06.844Z,-0.22
2023-01-27T22:36:33.316Z,-0.20
2023-01-27T22:38:59.793Z,-0.21
2023-01-27T22:41:26.310Z,-0.24
2023-01-27T22:43:52.782Z,-0.25
2023-01-27T22:46:19.276Z,-0.22
2023-01-27T22:48:47.210Z,-0.19
2023-01-27T22:51:13.684Z,-0.19
2023-01-27T22:53:40.148Z,-0.24
2023-01-27T22:56:07.111Z,-0.13
2023-01-27T22:58:34.380Z,-0.12
2023-01-27T23:01:00.901Z,-0.21
2023-01-27T23:03:27.377Z,-0.24
2023-01-27T23:05:54.104Z,-0.18
2023-01-27T23:08:20.668Z,-0.20
2023-01-27T23:10:47.784Z,-0.14
2023-01-27T23:13:14.464Z,-0.17
2023-01-27T23:15:40.929Z,-0.14
2023-01-27T23:18:11.307Z,-0.12
2023-01-27T23:20:39.520Z,-0.15
2023-01-27T23:23:06.277Z,-0.27
2023-01-27T23:25:32.902Z,-0.22
2023-01-27T23:27:59.823Z,-0.32
2023-01-27T23:30:26.772Z,-0.14
2023-01-27T23:32:57.465Z,-0.13
2023-01-27T23:35:24.065Z,-0.13
2023-01-27T23:37:50.530Z,-0.18
2023-01-27T23:40:17.203Z,-0.08
2023-01-27T23:42:43.749Z,-0.11
2023-01-27T23:45:11.364Z,-0.06
2023-01-27T23:47:37.964Z,-0.04
2023-01-27T23:50:05.307Z,-0.08
2023-01-27T23:52:34.378Z,-0.08
2023-01-27T23:55:00.836Z,-0.16
2023-01-27T23:57:27.574Z,-0.23
2023-01-27T23:59:54.035Z,-0.22
